Time;durP1;ratioP1;P1;durP2;ratioP2;P2;SDS_P1;SDS_P2;PMS_P1;PMS_P2;Temp;Humidity;BMP_temperature;BMP_pressure;BME280_temperature;BME280_humidity;BME280_pressure;Samples;Min_cycle;Max_cycle;Signal;HPM_P1;HPM_P2
2023/09/17 00:01:38;;;;;;;27.58;25.05;;;17.30;99.90;;;;;;4963510;28;20043;-76
2023/09/17 00:04:06;;;;;;;28.38;25.38;;;17.20;99.90;;;;;;4959753;28;20144;-75
2023/09/17 00:06:33;;;;;;;27.95;25.27;;;17.20;99.90;;;;;;4964365;28;20047;-75
2023/09/17 00:09:00;;;;;;;27.20;24.33;;;17.20;99.90;;;;;;4938296;28;20046;-75
2023/09/17 00:11:27;;;;;;;25.42;22.88;;;17.10;99.90;;;;;;4947270;28;20099;-76
2023/09/17 00:13:54;;;;;;;26.23;23.83;;;17.20;99.90;;;;;;4971387;28;20116;-76
2023/09/17 00:16:21;;;;;;;26.02;23.20;;;17.20;99.90;;;;;;4978628;28;20038;-76
2023/09/17 00:18:47;;;;;;;25.90;23.45;;;17.20;99.90;;;;;;4973925;28;20538;-76
2023/09/17 00:21:14;;;;;;;25.10;22.45;;;17.20;99.90;;;;;;4974191;28;20039;-75
2023/09/17 00:23:41;;;;;;;26.10;23.88;;;17.20;99.90;;;;;;4953957;28;20054;-76
2023/09/17 00:26:08;;;;;;;24.83;22.73;;;17.20;99.90;;;;;;4970733;28;20055;-77
2023/09/17 00:28:35;;;;;;;23.92;21.75;;;17.40;99.90;;;;;;4954044;28;20043;-75
2023/09/17 00:31:02;;;;;;;25.42;23.02;;;17.30;99.90;;;;;;4971570;28;20063;-76
2023/09/17 00:33:29;;;;;;;24.35;22.15;;;17.30;99.90;;;;;;4956948;28;20496;-75
2023/09/17 00:36:00;;;;;;;24.90;22.23;;;17.30;99.90;;;;;;4955930;28;20045;-75
2023/09/17 00:38:26;;;;;;;24.15;21.85;;;17.30;99.90;;;;;;4956436;28;20061;-76
2023/09/17 00:40:53;;;;;;;24.73;22.13;;;17.20;99.90;;;;;;4946982;28;20121;-76
2023/09/17 00:43:20;;;;;;;25.20;22.75;;;17.30;99.90;;;;;;4977404;28;20069;-76
2023/09/17 00:45:47;;;;;;;26.65;23.85;;;17.30;99.90;;;;;;4942729;28;20053;-75
2023/09/17 00:48:14;;;;;;;25.85;23.55;;;17.20;99.90;;;;;;4955022;28;21470;-74
2023/09/17 00:50:40;;;;;;;26.65;23.90;;;17.40;99.90;;;;;;4982730;28;20065;-75
2023/09/17 00:53:08;;;;;;;27.52;25.23;;;17.40;99.90;;;;;;4966565;28;20617;-75
2023/09/17 00:55:35;;;;;;;26.92;24.40;;;17.30;99.90;;;;;;4956297;28;20494;-75
2023/09/17 00:58:04;;;;;;;27.35;24.50;;;17.20;99.90;;;;;;4966744;28;20137;-74
2023/09/17 01:00:33;;;;;;;27.05;24.65;;;17.30;99.90;;;;;;4984485;28;20137;-75
2023/09/17 01:03:02;;;;;;;27.92;25.63;;;17.30;99.90;;;;;;4952148;28;20057;-74
2023/09/17 01:05:36;;;;;;;29.40;26.73;;;17.40;99.90;;;;;;4965463;28;20143;-76
2023/09/17 01:08:07;;;;;;;27.92;25.58;;;17.40;99.90;;;;;;4948528;28;20057;-75
2023/09/17 01:10:35;;;;;;;27.65;25.27;;;17.20;99.90;;;;;;4974793;28;20067;-76
2023/09/17 01:13:04;;;;;;;29.05;26.33;;;17.20;99.90;;;;;;4951233;28;20030;-76
2023/09/17 01:15:34;;;;;;;30.17;27.52;;;17.30;99.90;;;;;;4955178;28;20054;-76
2023/09/17 01:18:05;;;;;;;30.27;27.73;;;17.30;99.90;;;;;;4955153;28;20056;-75
2023/09/17 01:20:39;;;;;;;29.20;26.75;;;17.40;99.90;;;;;;4960315;28;20046;-75
2023/09/17 01:23:39;;;;;;;27.87;25.23;;;17.40;99.90;;;;;;4957738;28;20669;-76
2023/09/17 01:26:16;;;;;;;28.65;26.15;;;17.40;99.90;;;;;;4968600;28;20167;-76
2023/09/17 01:28:43;;;;;;;28.67;25.73;;;17.20;99.90;;;;;;4948299;28;20499;-75
2023/09/17 01:31:10;;;;;;;27.38;24.90;;;17.10;99.90;;;;;;4963003;28;20158;-76
2023/09/17 01:33:37;;;;;;;28.48;25.95;;;17.10;99.90;;;;;;4970734;28;20042;-75
2023/09/17 01:36:16;;;;;;;29.38;26.40;;;17.20;99.90;;;;;;4968650;28;20049;-77
2023/09/17 01:38:49;;;;;;;29.42;26.98;;;17.30;99.90;;;;;;4960919;28;20105;-76
2023/09/17 01:41:18;;;;;;;29.92;27.33;;;17.20;99.90;;;;;;4964920;28;20044;-76
2023/09/17 01:43:46;;;;;;;29.15;26.75;;;17.10;99.90;;;;;;4973947;28;20119;-75
2023/09/17 01:46:15;;;;;;;28.70;26.27;;;17.00;99.90;;;;;;4960443;28;20536;-76
2023/09/17 01:48:42;;;;;;;30.35;27.67;;;17.00;99.90;;;;;;4974337;28;20051;-76
2023/09/17 01:51:11;;;;;;;29.63;27.02;;;17.00;99.90;;;;;;4954475;28;20406;-76
2023/09/17 01:53:38;;;;;;;29.60;27.02;;;17.00;99.90;;;;;;4958824;28;20580;-76
2023/09/17 01:56:05;;;;;;;29.27;26.58;;;17.00;99.90;;;;;;4950554;28;20038;-75
2023/09/17 01:58:33;;;;;;;29.33;26.75;;;17.10;99.90;;;;;;4962901;28;20115;-75
2023/09/17 02:01:00;;;;;;;29.45;26.42;;;17.10;99.90;;;;;;4968962;28;20042;-74
2023/09/17 02:03:28;;;;;;;27.83;24.92;;;17.10;99.90;;;;;;4971711;28;20047;-76
2023/09/17 02:05:55;;;;;;;27.08;24.27;;;17.10;99.90;;;;;;4965858;28;20384;-75
2023/09/17 02:08:22;;;;;;;28.15;25.17;;;17.00;99.90;;;;;;4957456;28;20050;-75
2023/09/17 02:10:49;;;;;;;28.02;25.23;;;17.00;99.90;;;;;;4960029;28;20150;-75
2023/09/17 02:13:16;;;;;;;28.30;25.42;;;16.90;99.90;;;;;;4956288;28;20042;-76
2023/09/17 02:15:44;;;;;;;29.05;26.08;;;17.10;99.90;;;;;;4962251;28;20035;-76
2023/09/17 02:18:12;;;;;;;29.13;26.30;;;17.20;99.90;;;;;;4970628;28;20587;-76
2023/09/17 02:20:39;;;;;;;28.17;25.60;;;17.20;99.90;;;;;;4951859;28;20641;-76
2023/09/17 02:23:09;;;;;;;29.20;26.63;;;17.10;99.90;;;;;;4954722;28;20227;-76
2023/09/17 02:25:36;;;;;;;29.55;26.75;;;17.10;99.90;;;;;;4957206;28;20046;-76
2023/09/17 02:28:03;;;;;;;29.50;26.75;;;17.10;99.90;;;;;;4970337;28;20037;-76
2023/09/17 02:30:30;;;;;;;27.30;24.73;;;17.20;99.90;;;;;;4978879;28;20093;-75
2023/09/17 02:32:57;;;;;;;28.20;25.38;;;17.20;99.90;;;;;;4974506;28;20060;-75
2023/09/17 02:35:24;;;;;;;29.13;26.52;;;17.10;99.90;;;;;;4978774;28;20054;-75
2023/09/17 02:37:51;;;;;;;26.48;24.08;;;17.20;99.90;;;;;;4960534;28;20050;-75
2023/09/17 02:40:18;;;;;;;28.10;25.35;;;17.20;99.90;;;;;;4969523;28;20157;-76
2023/09/17 02:42:45;;;;;;;27.50;24.58;;;17.20;99.90;;;;;;4970021;28;20046;-76
2023/09/17 02:45:12;;;;;;;27.33;24.65;;;17.30;99.90;;;;;;4980187;28;20073;-75
2023/09/17 02:47:40;;;;;;;27.52;25.02;;;17.20;99.90;;;;;;4982590;28;20256;-76
2023/09/17 02:50:09;;;;;;;27.58;24.85;;;17.20;99.90;;;;;;4968430;28;20043;-75
2023/09/17 02:52:36;;;;;;;29.75;26.88;;;17.30;99.90;;;;;;4955315;28;20121;-76
2023/09/17 02:55:04;;;;;;;28.80;26.00;;;17.30;99.90;;;;;;4958227;28;20049;-76
2023/09/17 02:57:31;;;;;;;28.02;25.30;;;17.30;99.90;;;;;;4983548;28;20107;-76
2023/09/17 02:59:59;;;;;;;27.90;25.08;;;17.30;99.90;;;;;;4955479;28;20045;-75
2023/09/17 03:02:26;;;;;;;28.40;25.38;;;17.20;99.90;;;;;;5013946;28;20074;-76
2023/09/17 03:04:56;;;;;;;29.17;25.95;;;17.10;99.90;;;;;;4957566;28;20047;-76
2023/09/17 03:07:24;;;;;;;29.02;26.33;;;17.20;99.90;;;;;;4947857;28;20062;-75
2023/09/17 03:09:51;;;;;;;29.70;26.80;;;17.20;99.90;;;;;;4949951;28;20050;-75
2023/09/17 03:12:18;;;;;;;29.45;26.48;;;17.10;99.90;;;;;;4953258;28;20058;-75
2023/09/17 03:14:45;;;;;;;29.02;26.25;;;17.00;99.90;;;;;;4955138;28;20058;-76
2023/09/17 03:17:12;;;;;;;30.35;27.45;;;17.00;99.90;;;;;;4932131;28;20468;-76
2023/09/17 03:19:39;;;;;;;28.90;26.13;;;17.10;99.90;;;;;;4983870;28;20050;-76
2023/09/17 03:22:06;;;;;;;29.30;26.25;;;17.10;99.90;;;;;;4951927;28;20576;-75
2023/09/17 03:24:34;;;;;;;29.20;26.10;;;17.10;99.90;;;;;;4967342;28;20112;-76
2023/09/17 03:27:01;;;;;;;28.65;25.70;;;17.10;99.90;;;;;;4959090;28;20142;-76
2023/09/17 03:29:28;;;;;;;29.90;26.92;;;17.10;99.90;;;;;;4960722;28;20050;-75
2023/09/17 03:31:56;;;;;;;29.02;26.02;;;17.00;99.90;;;;;;4959169;28;20041;-77
2023/09/17 03:34:22;;;;;;;34.00;27.42;;;16.90;99.90;;;;;;4940209;28;21987;-76
2023/09/17 03:36:50;;;;;;;28.65;25.92;;;17.00;99.90;;;;;;4956845;28;20130;-76
2023/09/17 03:39:17;;;;;;;32.67;28.67;;;16.90;99.90;;;;;;4943887;28;20050;-75
2023/09/17 03:41:44;;;;;;;29.35;26.45;;;16.90;99.90;;;;;;4966818;28;20051;-74
2023/09/17 03:44:11;;;;;;;31.75;28.13;;;16.80;99.90;;;;;;4953447;28;20077;-76
2023/09/17 03:46:38;;;;;;;31.33;28.15;;;16.90;99.90;;;;;;4941818;28;20594;-76
2023/09/17 03:49:06;;;;;;;35.55;31.95;;;16.70;99.90;;;;;;4974073;28;20865;-75
2023/09/17 03:51:34;;;;;;;33.65;30.25;;;16.60;99.90;;;;;;4963783;28;20050;-76
2023/09/17 03:54:01;;;;;;;32.97;29.67;;;16.60;99.90;;;;;;4975213;28;20056;-76
2023/09/17 03:56:28;;;;;;;33.45;30.02;;;16.60;99.90;;;;;;4951926;28;20819;-75
2023/09/17 03:58:55;;;;;;;34.55;29.77;;;16.70;99.90;;;;;;4959779;28;20868;-76
2023/09/17 04:01:24;;;;;;;35.88;31.98;;;16.80;99.90;;;;;;4954758;28;20060;-76
2023/09/17 04:03:51;;;;;;;35.20;31.27;;;16.80;99.90;;;;;;4960741;28;20074;-75
2023/09/17 04:06:19;;;;;;;34.13;30.52;;;16.70;99.90;;;;;;4958377;28;20038;-76
2023/09/17 04:08:45;;;;;;;34.78;31.08;;;16.80;99.90;;;;;;4956676;28;20107;-76
2023/09/17 04:11:15;;;;;;;32.67;29.40;;;16.80;99.90;;;;;;4964650;28;20042;-76
2023/09/17 04:13:43;;;;;;;31.13;28.02;;;16.90;99.90;;;;;;4970100;28;20121;-76
2023/09/17 04:16:12;;;;;;;33.40;29.65;;;16.80;99.90;;;;;;4951100;28;20038;-74
2023/09/17 04:18:39;;;;;;;32.17;28.95;;;16.80;99.90;;;;;;4969552;28;20066;-76
2023/09/17 04:21:06;;;;;;;32.55;29.20;;;16.80;99.90;;;;;;4971655;28;20096;-74
2023/09/17 04:23:33;;;;;;;31.65;28.42;;;16.90;99.90;;;;;;4960192;28;20074;-77
2023/09/17 04:26:00;;;;;;;32.80;29.52;;;16.80;99.90;;;;;;4974237;28;20046;-76
2023/09/17 04:28:27;;;;;;;30.55;27.60;;;16.80;99.90;;;;;;4977118;28;20047;-76
2023/09/17 04:30:54;;;;;;;29.98;27.17;;;16.80;99.90;;;;;;4961919;28;20141;-76
2023/09/17 04:33:22;;;;;;;30.92;27.83;;;16.80;99.90;;;;;;4955476;28;20066;-76
2023/09/17 04:35:56;;;;;;;32.80;29.70;;;16.80;99.90;;;;;;4943485;28;20050;-75
2023/09/17 04:38:23;;;;;;;31.58;28.58;;;16.80;99.90;;;;;;4954597;28;20043;-75
2023/09/17 04:40:50;;;;;;;32.47;29.40;;;16.90;99.90;;;;;;4959608;28;20172;-75
2023/09/17 04:43:19;;;;;;;32.05;29.15;;;16.90;99.90;;;;;;4960131;28;20112;-76
2023/09/17 04:45:46;;;;;;;30.20;27.25;;;17.10;99.90;;;;;;4959101;28;20050;-76
2023/09/17 04:48:22;;;;;;;28.75;26.15;;;17.10;99.90;;;;;;4958277;28;20136;-75
2023/09/17 04:50:49;;;;;;;30.05;27.33;;;17.20;99.90;;;;;;4960222;28;20030;-75
2023/09/17 04:53:16;;;;;;;28.00;25.48;;;17.30;99.90;;;;;;4951929;28;20062;-75
2023/09/17 04:55:45;;;;;;;28.08;25.48;;;17.40;99.90;;;;;;4981116;28;20043;-76
2023/09/17 04:58:14;;;;;;;28.20;25.55;;;17.40;99.90;;;;;;4958956;28;20095;-75
2023/09/17 05:00:41;;;;;;;29.80;26.92;;;17.50;99.90;;;;;;4961446;28;20129;-76
2023/09/17 05:03:08;;;;;;;29.27;26.73;;;17.50;99.90;;;;;;4976251;28;20061;-75
2023/09/17 05:05:35;;;;;;;28.60;25.92;;;17.50;99.90;;;;;;4958295;28;20053;-75
2023/09/17 05:08:03;;;;;;;28.20;25.80;;;17.60;99.90;;;;;;4940043;28;20510;-76
2023/09/17 05:10:29;;;;;;;27.02;24.50;;;17.60;99.90;;;;;;4952264;28;20046;-75
2023/09/17 05:12:57;;;;;;;27.00;24.50;;;17.70;99.90;;;;;;4965381;28;20034;-75
2023/09/17 05:15:24;;;;;;;25.25;23.05;;;17.80;99.90;;;;;;4955444;28;20042;-75
2023/09/17 05:17:54;;;;;;;24.95;22.55;;;18.00;99.90;;;;;;4974144;28;20056;-75
2023/09/17 05:20:21;;;;;;;24.83;22.70;;;18.10;99.90;;;;;;4958850;28;20058;-76
2023/09/17 05:22:48;;;;;;;22.90;21.10;;;18.20;99.90;;;;;;4941919;28;20046;-75
2023/09/17 05:25:15;;;;;;;23.63;21.58;;;18.20;99.90;;;;;;4947191;28;20708;-75
2023/09/17 05:27:42;;;;;;;24.70;22.60;;;18.30;99.90;;;;;;4960838;28;20544;-76
2023/09/17 05:30:09;;;;;;;25.77;23.67;;;18.30;99.90;;;;;;4959219;28;20046;-75
2023/09/17 05:32:37;;;;;;;26.65;24.35;;;18.30;99.90;;;;;;5030383;28;20038;-76
2023/09/17 05:35:04;;;;;;;26.05;23.70;;;18.30;99.90;;;;;;4962022;28;20055;-76
2023/09/17 05:37:31;;;;;;;26.48;24.27;;;18.30;99.90;;;;;;4957524;28;20043;-76
2023/09/17 05:40:01;;;;;;;25.77;23.27;;;18.30;99.90;;;;;;5015019;28;20052;-76
2023/09/17 05:42:29;;;;;;;26.92;24.10;;;18.30;99.90;;;;;;4979527;28;20142;-75
2023/09/17 05:44:56;;;;;;;24.42;22.10;;;18.30;99.90;;;;;;4944183;28;20569;-76
2023/09/17 05:47:23;;;;;;;25.83;23.67;;;18.40;99.90;;;;;;4944358;28;20129;-76
2023/09/17 05:49:50;;;;;;;24.92;22.65;;;18.40;99.90;;;;;;4973671;28;20121;-75
2023/09/17 05:52:18;;;;;;;25.33;22.92;;;18.40;99.90;;;;;;4958054;28;20131;-75
2023/09/17 05:54:45;;;;;;;23.98;21.80;;;18.40;99.90;;;;;;4967235;28;20042;-76
2023/09/17 05:57:11;;;;;;;23.27;21.27;;;18.50;99.90;;;;;;4982485;28;20054;-75
2023/09/17 05:59:38;;;;;;;23.40;21.40;;;18.50;99.90;;;;;;4973109;28;20046;-76
2023/09/17 06:02:07;;;;;;;25.15;22.85;;;18.60;99.90;;;;;;4973349;28;20039;-76
2023/09/17 06:04:35;;;;;;;24.08;21.95;;;18.60;99.90;;;;;;4950067;28;20061;-76
2023/09/17 06:07:02;;;;;;;25.27;22.98;;;18.70;99.90;;;;;;4960732;28;20042;-76
2023/09/17 06:09:29;;;;;;;27.60;24.80;;;18.70;99.90;;;;;;4957096;28;20042;-75
2023/09/17 06:11:57;;;;;;;29.13;26.52;;;18.60;99.90;;;;;;4963557;28;20116;-73
2023/09/17 06:14:24;;;;;;;29.67;26.88;;;18.50;99.90;;;;;;4955653;28;20069;-75
2023/09/17 06:16:50;;;;;;;29.77;26.88;;;18.40;99.90;;;;;;4962183;28;20034;-74
2023/09/17 06:19:24;;;;;;;29.10;26.40;;;18.40;99.90;;;;;;4953743;28;20074;-75
2023/09/17 06:21:53;;;;;;;29.20;26.40;;;18.40;99.90;;;;;;4955325;28;20049;-75
2023/09/17 06:24:20;;;;;;;29.30;26.40;;;18.30;99.90;;;;;;4962332;28;20061;-73
2023/09/17 06:26:47;;;;;;;30.25;27.20;;;18.30;99.90;;;;;;4960021;28;20054;-72
2023/09/17 06:29:14;;;;;;;28.88;26.10;;;18.40;99.90;;;;;;4944863;28;20150;-73
2023/09/17 06:31:41;;;;;;;30.20;27.25;;;18.50;99.90;;;;;;4964121;28;20236;-73
2023/09/17 06:34:09;;;;;;;27.73;25.13;;;18.50;99.90;;;;;;4961674;28;20122;-73
2023/09/17 06:36:36;;;;;;;28.02;25.20;;;18.60;99.90;;;;;;4964777;28;20705;-73
2023/09/17 06:39:05;;;;;;;26.25;23.85;;;18.70;99.90;;;;;;4972499;28;21468;-73
2023/09/17 06:41:33;;;;;;;27.83;25.23;;;18.70;99.90;;;;;;4977630;28;20051;-74
2023/09/17 06:44:04;;;;;;;28.67;26.13;;;18.80;99.90;;;;;;4972320;28;20054;-73
2023/09/17 06:46:32;;;;;;;30.63;27.60;;;18.80;99.90;;;;;;4973823;28;20580;-73
2023/09/17 06:48:59;;;;;;;28.90;26.20;;;18.80;99.90;;;;;;4957087;28;20045;-71
2023/09/17 06:51:26;;;;;;;30.38;27.50;;;18.80;99.90;;;;;;4979434;28;20125;-73
2023/09/17 06:53:52;;;;;;;26.90;24.50;;;18.60;99.90;;;;;;4952833;28;20034;-73
2023/09/17 06:56:23;;;;;;;29.45;26.52;;;18.70;99.90;;;;;;4959963;28;20133;-74
2023/09/17 06:58:50;;;;;;;27.85;25.17;;;18.60;99.90;;;;;;4967967;28;20058;-73
2023/09/17 07:01:18;;;;;;;25.30;23.05;;;18.70;99.90;;;;;;4949730;28;20054;-74
2023/09/17 07:03:45;;;;;;;24.58;22.45;;;18.70;99.90;;;;;;4959318;28;20048;-75
2023/09/17 07:06:11;;;;;;;26.65;24.05;;;18.70;99.90;;;;;;4977216;28;20132;-74
2023/09/17 07:08:38;;;;;;;27.95;25.17;;;18.80;99.90;;;;;;4974664;28;20131;-74
2023/09/17 07:11:05;;;;;;;26.17;23.98;;;18.80;99.90;;;;;;4957111;28;20042;-74
2023/09/17 07:13:32;;;;;;;26.58;23.92;;;18.80;99.90;;;;;;4963466;28;20050;-73
2023/09/17 07:15:59;;;;;;;26.15;23.77;;;18.90;99.90;;;;;;4964429;28;20053;-74
2023/09/17 07:18:26;;;;;;;23.38;21.27;;;18.80;99.90;;;;;;4980525;28;20054;-74
2023/09/17 07:20:53;;;;;;;22.95;21.20;;;18.80;99.90;;;;;;4978246;28;20095;-74
2023/09/17 07:23:19;;;;;;;21.55;19.75;;;18.80;99.90;;;;;;4962918;28;20043;-73
2023/09/17 07:25:46;;;;;;;21.17;19.58;;;18.80;99.90;;;;;;4974493;28;20739;-73
2023/09/17 07:28:13;;;;;;;22.23;20.52;;;18.90;99.90;;;;;;4968651;28;20054;-74
2023/09/17 07:30:40;;;;;;;21.67;20.02;;;18.90;99.90;;;;;;4963905;28;20511;-73
2023/09/17 07:33:07;;;;;;;23.35;21.42;;;18.90;99.90;;;;;;4976967;28;20043;-74
2023/09/17 07:35:35;;;;;;;22.10;20.40;;;18.90;99.90;;;;;;4968877;28;20046;-74
2023/09/17 07:38:02;;;;;;;21.58;19.90;;;19.00;99.90;;;;;;4961327;28;20175;-74
2023/09/17 07:40:28;;;;;;;22.00;20.30;;;19.00;99.90;;;;;;4971340;28;20053;-73
2023/09/17 07:42:55;;;;;;;23.85;21.70;;;19.20;99.90;;;;;;4980005;28;20129;-73
2023/09/17 07:45:22;;;;;;;21.45;19.92;;;19.10;99.90;;;;;;4975243;28;20050;-73
2023/09/17 07:47:49;;;;;;;21.88;20.17;;;19.10;99.90;;;;;;4967727;28;20058;-74
2023/09/17 07:50:16;;;;;;;24.58;22.10;;;19.10;99.90;;;;;;4962613;28;20034;-74
2023/09/17 07:52:43;;;;;;;23.25;21.25;;;19.10;99.90;;;;;;4974210;28;20048;-72
2023/09/17 07:55:10;;;;;;;22.88;21.15;;;19.20;99.90;;;;;;4975562;28;20050;-73
2023/09/17 07:57:36;;;;;;;24.15;21.63;;;19.20;99.90;;;;;;4973209;28;20042;-72
2023/09/17 08:00:05;;;;;;;22.75;20.75;;;19.20;99.90;;;;;;4970720;28;20479;-72
2023/09/17 08:02:38;;;;;;;22.42;20.73;;;19.10;99.90;;;;;;4974108;28;20055;-72
2023/09/17 08:05:07;;;;;;;20.83;19.25;;;19.00;99.90;;;;;;4963088;28;20420;-72
2023/09/17 08:07:35;;;;;;;23.08;21.00;;;18.90;99.90;;;;;;4950092;28;20055;-72
2023/09/17 08:10:06;;;;;;;22.80;21.17;;;18.80;99.90;;;;;;5032994;28;20051;-72
2023/09/17 08:12:33;;;;;;;23.85;21.88;;;18.70;99.90;;;;;;4975178;28;20213;-72
2023/09/17 08:15:00;;;;;;;22.38;20.67;;;18.70;99.90;;;;;;4968514;28;20046;-72
2023/09/17 08:17:27;;;;;;;21.42;19.75;;;18.70;99.90;;;;;;4975987;28;20069;-72
2023/09/17 08:19:56;;;;;;;23.08;21.17;;;18.80;99.90;;;;;;4964375;28;20057;-73
2023/09/17 08:22:25;;;;;;;21.25;19.20;;;18.90;99.90;;;;;;4982403;28;20042;-73
2023/09/17 08:24:51;;;;;;;20.73;19.23;;;19.10;99.90;;;;;;4968042;28;20588;-72
2023/09/17 08:27:19;;;;;;;21.83;20.23;;;19.30;99.90;;;;;;4961244;28;20135;-72
2023/09/17 08:29:46;;;;;;;21.52;19.80;;;19.40;99.90;;;;;;4940880;28;20038;-73
2023/09/17 08:32:14;;;;;;;21.17;19.58;;;19.40;99.90;;;;;;4955991;28;20149;-73
2023/09/17 08:34:41;;;;;;;20.83;19.33;;;19.40;99.90;;;;;;4943886;28;20055;-73
2023/09/17 08:37:07;;;;;;;22.25;20.45;;;19.40;99.90;;;;;;4987431;28;20039;-73
2023/09/17 08:39:34;;;;;;;20.42;18.92;;;19.40;99.90;;;;;;4973978;28;20539;-73
2023/09/17 08:42:01;;;;;;;22.70;20.80;;;19.60;99.90;;;;;;4949883;28;20046;-74
2023/09/17 08:44:30;;;;;;;22.77;21.05;;;19.80;99.90;;;;;;4962600;28;20058;-73
2023/09/17 08:46:59;;;;;;;22.92;21.13;;;19.90;99.90;;;;;;4971215;28;20082;-73
2023/09/17 08:49:26;;;;;;;23.10;21.30;;;19.90;99.90;;;;;;4955474;28;20402;-73
2023/09/17 08:51:56;;;;;;;23.23;21.40;;;19.80;99.90;;;;;;5018325;28;20104;-74
2023/09/17 08:54:33;;;;;;;23.40;21.60;;;19.80;99.90;;;;;;4965112;28;20419;-74
2023/09/17 08:57:03;;;;;;;23.60;21.80;;;19.90;99.90;;;;;;4960406;28;20041;-74
2023/09/17 08:59:38;;;;;;;25.92;24.00;;;19.90;99.90;;;;;;4970856;28;20046;-74
2023/09/17 09:02:29;;;;;;;24.70;23.00;;;20.00;99.90;;;;;;4973607;28;20061;-74
2023/09/17 09:04:57;;;;;;;23.85;21.92;;;20.00;99.90;;;;;;4975225;28;20053;-75
2023/09/17 09:07:25;;;;;;;23.35;21.30;;;20.10;99.90;;;;;;4977366;28;20043;-75
2023/09/17 09:09:52;;;;;;;22.20;20.63;;;20.30;99.90;;;;;;4951616;28;20055;-75
2023/09/17 09:12:19;;;;;;;24.02;21.98;;;20.60;99.90;;;;;;4965089;28;20042;-75
2023/09/17 09:14:47;;;;;;;24.15;22.25;;;20.90;99.90;;;;;;4962445;28;22243;-74
2023/09/17 09:17:14;;;;;;;26.00;24.08;;;21.10;99.90;;;;;;4977927;28;20137;-76
2023/09/17 09:19:41;;;;;;;24.55;22.85;;;21.10;99.90;;;;;;4969933;28;20735;-76
2023/09/17 09:22:08;;;;;;;23.55;21.92;;;21.40;99.90;;;;;;4952241;28;20520;-75
2023/09/17 09:24:47;;;;;;;24.75;22.95;;;21.60;99.90;;;;;;4961720;28;20161;-75
2023/09/17 09:27:15;;;;;;;26.13;24.17;;;21.70;99.90;;;;;;4977469;28;20057;-77
2023/09/17 09:29:43;;;;;;;25.40;23.50;;;21.50;99.90;;;;;;4965687;28;20682;-75
2023/09/17 09:32:11;;;;;;;24.77;22.88;;;21.30;99.90;;;;;;4974231;28;20703;-75
2023/09/17 09:34:42;;;;;;;24.90;23.20;;;21.40;99.90;;;;;;4957139;28;20050;-75
2023/09/17 09:37:09;;;;;;;24.17;22.52;;;21.40;99.90;;;;;;4973189;28;20042;-75
2023/09/17 09:39:37;;;;;;;23.77;22.08;;;21.40;99.90;;;;;;4951334;28;20109;-74
2023/09/17 09:42:05;;;;;;;24.45;22.83;;;21.30;99.90;;;;;;4987961;28;20149;-75
2023/09/17 09:44:32;;;;;;;24.00;22.25;;;21.30;99.90;;;;;;4927522;28;20099;-74
2023/09/17 09:47:00;;;;;;;25.17;23.42;;;21.60;99.90;;;;;;4973543;28;20052;-74
2023/09/17 09:49:28;;;;;;;25.08;23.48;;;21.70;99.90;;;;;;4962705;28;20053;-75
2023/09/17 09:51:59;;;;;;;25.48;23.88;;;22.10;99.90;;;;;;4973226;28;20127;-74
2023/09/17 09:54:25;;;;;;;24.98;23.42;;;22.40;99.90;;;;;;4972593;28;20506;-74
2023/09/17 09:56:52;;;;;;;26.35;24.65;;;22.30;99.90;;;;;;4958174;28;20168;-73
2023/09/17 09:59:32;;;;;;;28.38;26.55;;;22.40;99.90;;;;;;4956052;28;20038;-72
2023/09/17 10:02:01;;;;;;;26.80;25.20;;;22.70;99.90;;;;;;4962143;28;20054;-73
2023/09/17 10:04:29;;;;;;;27.98;26.20;;;23.20;99.90;;;;;;4956947;28;20057;-72
2023/09/17 10:06:57;;;;;;;27.40;25.67;;;23.50;99.90;;;;;;4972138;28;20039;-76
2023/09/17 10:09:25;;;;;;;28.95;27.25;;;23.50;99.90;;;;;;4956920;28;20057;-73
2023/09/17 10:11:55;;;;;;;29.45;27.65;;;23.50;99.90;;;;;;4963036;28;20065;-73
2023/09/17 10:14:24;;;;;;;30.10;27.90;;;23.30;99.90;;;;;;4976202;28;20120;-73
2023/09/17 10:16:52;;;;;;;28.80;26.90;;;23.20;99.90;;;;;;4976952;28;20049;-72
2023/09/17 10:19:21;;;;;;;27.55;25.42;;;23.40;99.90;;;;;;4961793;28;20053;-72
2023/09/17 10:21:49;;;;;;;26.77;25.00;;;23.90;99.90;;;;;;4964075;28;20039;-72
2023/09/17 10:24:19;;;;;;;26.92;24.88;;;24.20;99.90;;;;;;4961986;28;20106;-73
2023/09/17 10:26:46;;;;;;;26.02;24.42;;;24.40;99.90;;;;;;4978608;28;20050;-72
2023/09/17 10:29:14;;;;;;;26.80;25.00;;;24.20;99.90;;;;;;4956050;28;22249;-72
2023/09/17 10:31:45;;;;;;;28.00;25.90;;;24.10;99.90;;;;;;4974942;28;20042;-71
2023/09/17 10:34:13;;;;;;;26.00;24.30;;;23.90;99.90;;;;;;4965376;28;20074;-72
2023/09/17 10:36:42;;;;;;;27.02;25.23;;;23.90;99.90;;;;;;4975390;28;20050;-73
2023/09/17 10:39:10;;;;;;;25.55;23.83;;;24.00;99.90;;;;;;4965281;28;20042;-75
2023/09/17 10:41:37;;;;;;;25.92;24.35;;;23.90;99.90;;;;;;4961186;28;20083;-74
2023/09/17 10:44:06;;;;;;;26.15;24.45;;;23.80;99.90;;;;;;4972557;28;20063;-73
2023/09/17 10:46:36;;;;;;;26.92;25.08;;;23.90;99.90;;;;;;4986035;28;20053;-73
2023/09/17 10:49:05;;;;;;;25.02;23.45;;;24.20;99.90;;;;;;4961770;28;20049;-74
2023/09/17 10:51:33;;;;;;;23.85;22.25;;;24.40;99.90;;;;;;4976984;28;20051;-73
2023/09/17 10:54:00;;;;;;;25.42;23.83;;;24.40;99.90;;;;;;4961526;28;20307;-74
2023/09/17 10:56:27;;;;;;;26.25;24.52;;;24.40;99.90;;;;;;4984875;28;20054;-75
2023/09/17 10:58:54;;;;;;;24.80;23.40;;;24.50;99.90;;;;;;4975323;28;20046;-73
2023/09/17 11:01:29;;;;;;;26.98;25.15;;;24.60;99.90;;;;;;5039790;28;20050;-73
2023/09/17 11:04:02;;;;;;;26.70;24.70;;;24.70;99.90;;;;;;4963087;28;20228;-74
2023/09/17 11:06:34;;;;;;;27.25;25.40;;;24.70;99.90;;;;;;4971677;28;20051;-73
2023/09/17 11:09:01;;;;;;;26.63;24.92;;;24.80;99.90;;;;;;4958582;28;20050;-74
2023/09/17 11:11:30;;;;;;;27.70;25.73;;;24.80;99.90;;;;;;4955872;28;20054;-74
2023/09/17 11:13:57;;;;;;;25.42;23.92;;;25.10;99.90;;;;;;4978192;28;20067;-73
2023/09/17 11:16:26;;;;;;;26.67;25.10;;;25.30;99.90;;;;;;4971521;28;20045;-75
2023/09/17 11:19:16;;;;;;;25.92;24.40;;;25.40;99.90;;;;;;4957064;28;20137;-75
2023/09/17 11:21:49;;;;;;;25.10;23.67;;;25.40;99.90;;;;;;4973646;28;20112;-75
2023/09/17 11:24:19;;;;;;;25.05;23.45;;;25.70;99.90;;;;;;4978435;28;20050;-76
2023/09/17 11:26:47;;;;;;;26.48;24.90;;;25.80;99.90;;;;;;4966005;28;20058;-75
2023/09/17 11:29:14;;;;;;;26.15;24.48;;;25.60;99.90;;;;;;4966389;28;20140;-75
2023/09/17 11:31:54;;;;;;;26.42;24.77;;;25.70;99.90;;;;;;4975879;28;20120;-75
2023/09/17 11:34:21;;;;;;;26.85;25.15;;;25.90;99.90;;;;;;4973711;28;20099;-75
2023/09/17 11:36:48;;;;;;;26.17;24.38;;;26.30;99.90;;;;;;4956811;28;20081;-74
2023/09/17 11:39:16;;;;;;;26.00;24.20;;;26.40;99.90;;;;;;4972054;28;20215;-74
2023/09/17 11:41:55;;;;;;;26.40;24.40;;;26.60;99.90;;;;;;4989604;28;20048;-75
2023/09/17 11:44:23;;;;;;;25.25;23.60;;;26.80;99.90;;;;;;4972168;28;20133;-75
2023/09/17 11:46:52;;;;;;;26.83;25.08;;;26.60;99.90;;;;;;4964315;28;20050;-76
2023/09/17 11:49:22;;;;;;;25.63;24.13;;;26.40;99.90;;;;;;4978433;28;20057;-75
2023/09/17 11:51:49;;;;;;;26.30;24.70;;;26.20;99.90;;;;;;4965952;28;20131;-75
2023/09/17 11:54:18;;;;;;;26.90;25.08;;;26.10;99.90;;;;;;4956569;28;20499;-75
2023/09/17 11:56:46;;;;;;;26.30;24.80;;;26.00;99.90;;;;;;4981971;28;20138;-75
2023/09/17 11:59:16;;;;;;;24.92;23.52;;;26.20;99.90;;;;;;4975927;28;20073;-75
2023/09/17 12:01:52;;;;;;;25.83;24.15;;;26.20;99.90;;;;;;4962734;28;20232;-75
2023/09/17 12:04:23;;;;;;;26.27;24.63;;;26.30;99.90;;;;;;4973057;28;20494;-75
2023/09/17 12:06:50;;;;;;;26.15;24.35;;;26.60;99.90;;;;;;4959990;28;20038;-75
2023/09/17 12:10:00;;;;;;;25.45;23.73;;;26.70;99.90;;;;;;4966158;28;20054;-74
2023/09/17 12:12:29;;;;;;;25.13;23.60;;;26.80;99.90;;;;;;4978278;28;20054;-75
2023/09/17 12:14:56;;;;;;;27.58;25.55;;;26.90;99.90;;;;;;4967777;28;20112;-74
2023/09/17 12:17:23;;;;;;;26.25;24.33;;;27.00;99.90;;;;;;4956739;28;20042;-74
2023/09/17 12:19:59;;;;;;;26.40;24.60;;;26.90;99.90;;;;;;4966904;28;20049;-74
2023/09/17 12:23:16;;;;;;;25.85;24.25;;;27.00;99.90;;;;;;4967956;28;20053;-74
2023/09/17 12:25:49;;;;;;;27.63;25.92;;;27.00;99.90;;;;;;5001756;28;20439;-74
2023/09/17 12:28:26;;;;;;;25.67;24.00;;;27.00;99.90;;;;;;4979293;28;20064;-74
2023/09/17 12:30:53;;;;;;;27.35;25.58;;;26.90;99.90;;;;;;4960892;28;20511;-74
2023/09/17 12:33:22;;;;;;;27.48;25.45;;;26.80;99.90;;;;;;4979317;28;20061;-74
2023/09/17 12:35:48;;;;;;;26.30;24.60;;;26.80;99.90;;;;;;4978967;28;20050;-74